sensor_id;sensor_type;location;lat;lon;timestamp;P1;durP1;ratioP1;P2;durP2;ratioP2
1533;SDS011;760;48.822;9.304;2022-12-07T05:05:55;6.30;;;4.35;;
1533;SDS011;760;48.822;9.304;2022-12-07T05:08:20;6.10;;;4.10;;
1533;SDS011;760;48.822;9.304;2022-12-07T05:10:48;5.47;;;4.60;;
1533;SDS011;760;48.822;9.304;2022-12-07T05:13:14;6.85;;;5.82;;
1533;SDS011;760;48.822;9.304;2022-12-07T05:15:39;5.33;;;4.47;;
1533;SDS011;760;48.822;9.304;2022-12-07T05:18:05;9.32;;;5.47;;
1533;SDS011;760;48.822;9.304;2022-12-07T05:20:31;9.20;;;4.60;;
1533;SDS011;760;48.822;9.304;2022-12-07T05:22:57;5.63;;;5.03;;
1533;SDS011;760;48.822;9.304;2022-12-07T05:25:23;5.30;;;4.32;;
1533;SDS011;760;48.822;9.304;2022-12-07T05:27:49;7.37;;;5.40;;
1533;SDS011;760;48.822;9.304;2022-12-07T05:30:15;5.20;;;4.30;;
1533;SDS011;760;48.822;9.304;2022-12-07T05:32:40;7.53;;;5.47;;
1533;SDS011;760;48.822;9.304;2022-12-07T05:35:06;5.90;;;4.80;;
1533;SDS011;760;48.822;9.304;2022-12-07T05:37:32;6.88;;;4.40;;
1533;SDS011;760;48.822;9.304;2022-12-07T05:39:57;7.63;;;4.13;;
1533;SDS011;760;48.822;9.304;2022-12-07T05:42:23;5.87;;;4.77;;
1533;SDS011;760;48.822;9.304;2022-12-07T05:44:49;5.80;;;5.07;;
1533;SDS011;760;48.822;9.304;2022-12-07T05:47:15;5.87;;;4.30;;
1533;SDS011;760;48.822;9.304;2022-12-07T05:49:41;4.30;;;3.90;;
1533;SDS011;760;48.822;9.304;2022-12-07T05:52:07;6.30;;;4.10;;
1533;SDS011;760;48.822;9.304;2022-12-07T05:54:33;5.50;;;4.47;;
1533;SDS011;760;48.822;9.304;2022-12-07T05:56:58;7.83;;;5.03;;
1533;SDS011;760;48.822;9.304;2022-12-07T05:59:24;6.03;;;4.63;;
1533;SDS011;760;48.822;9.304;2022-12-07T06:01:53;5.60;;;4.90;;
1533;SDS011;760;48.822;9.304;2022-12-07T06:04:19;6.72;;;4.20;;
1533;SDS011;760;48.822;9.304;2022-12-07T06:06:46;4.90;;;3.47;;
1533;SDS011;760;48.822;9.304;2022-12-07T06:09:11;6.27;;;4.13;;
1533;SDS011;760;48.822;9.304;2022-12-07T06:11:38;5.70;;;4.32;;
1533;SDS011;760;48.822;9.304;2022-12-07T06:14:23;7.28;;;4.95;;
1533;SDS011;760;48.822;9.304;2022-12-07T06:16:48;6.30;;;4.77;;
1533;SDS011;760;48.822;9.304;2022-12-07T06:19:14;6.90;;;5.17;;
1533;SDS011;760;48.822;9.304;2022-12-07T06:21:39;7.57;;;5.40;;
1533;SDS011;760;48.822;9.304;2022-12-07T06:24:05;9.50;;;5.00;;
1533;SDS011;760;48.822;9.304;2022-12-07T06:26:31;7.82;;;4.57;;
1533;SDS011;760;48.822;9.304;2022-12-07T06:28:57;7.23;;;5.00;;
1533;SDS011;760;48.822;9.304;2022-12-07T06:31:22;7.40;;;5.00;;
1533;SDS011;760;48.822;9.304;2022-12-07T06:33:48;8.53;;;5.70;;
1533;SDS011;760;48.822;9.304;2022-12-07T06:36:13;7.33;;;6.27;;
1533;SDS011;760;48.822;9.304;2022-12-07T06:38:39;6.67;;;5.20;;
1533;SDS011;760;48.822;9.304;2022-12-07T06:41:05;6.97;;;5.80;;
1533;SDS011;760;48.822;9.304;2022-12-07T06:43:31;8.52;;;5.18;;
1533;SDS011;760;48.822;9.304;2022-12-07T06:45:57;5.67;;;4.43;;
1533;SDS011;760;48.822;9.304;2022-12-07T06:48:23;8.47;;;5.20;;
1533;SDS011;760;48.822;9.304;2022-12-07T06:50:48;7.50;;;6.47;;
1533;SDS011;760;48.822;9.304;2022-12-07T06:53:14;7.07;;;4.90;;
1533;SDS011;760;48.822;9.304;2022-12-07T06:55:40;9.20;;;5.40;;
1533;SDS011;760;48.822;9.304;2022-12-07T06:58:06;8.07;;;3.85;;
1533;SDS011;760;48.822;9.304;2022-12-07T07:00:31;7.30;;;5.57;;
1533;SDS011;760;48.822;9.304;2022-12-07T07:02:59;5.70;;;4.13;;
1533;SDS011;760;48.822;9.304;2022-12-07T07:05:25;8.10;;;5.73;;
1533;SDS011;760;48.822;9.304;2022-12-07T07:07:50;6.93;;;6.33;;
1533;SDS011;760;48.822;9.304;2022-12-07T07:10:16;4.57;;;3.67;;
1533;SDS011;760;48.822;9.304;2022-12-07T07:12:42;6.33;;;5.43;;
1533;SDS011;760;48.822;9.304;2022-12-07T07:15:08;7.87;;;5.60;;
1533;SDS011;760;48.822;9.304;2022-12-07T07:17:34;7.80;;;6.13;;
1533;SDS011;760;48.822;9.304;2022-12-07T07:20:00;5.97;;;4.60;;
1533;SDS011;760;48.822;9.304;2022-12-07T07:22:25;6.03;;;5.20;;
1533;SDS011;760;48.822;9.304;2022-12-07T07:24:51;8.30;;;5.83;;
1533;SDS011;760;48.822;9.304;2022-12-07T07:27:17;10.93;;;8.03;;
1533;SDS011;760;48.822;9.304;2022-12-07T07:29:42;12.73;;;8.73;;
1533;SDS011;760;48.822;9.304;2022-12-07T07:32:08;9.97;;;7.23;;
1533;SDS011;760;48.822;9.304;2022-12-07T07:34:33;8.63;;;6.97;;
1533;SDS011;760;48.822;9.304;2022-12-07T07:36:59;8.70;;;6.40;;
1533;SDS011;760;48.822;9.304;2022-12-07T07:39:25;6.93;;;5.40;;
1533;SDS011;760;48.822;9.304;2022-12-07T07:41:50;7.80;;;6.00;;
1533;SDS011;760;48.822;9.304;2022-12-07T07:44:16;6.00;;;5.37;;
1533;SDS011;760;48.822;9.304;2022-12-07T07:46:42;6.10;;;5.10;;
1533;SDS011;760;48.822;9.304;2022-12-07T07:49:08;6.80;;;5.77;;
1533;SDS011;760;48.822;9.304;2022-12-07T07:51:35;8.02;;;4.80;;
1533;SDS011;760;48.822;9.304;2022-12-07T07:54:01;6.30;;;5.40;;
1533;SDS011;760;48.822;9.304;2022-12-07T07:56:27;10.03;;;6.83;;
1533;SDS011;760;48.822;9.304;2022-12-07T07:58:52;7.13;;;4.90;;
1533;SDS011;760;48.822;9.304;2022-12-07T08:01:18;5.78;;;4.53;;
1533;SDS011;760;48.822;9.304;2022-12-07T08:03:44;8.23;;;4.90;;
1533;SDS011;760;48.822;9.304;2022-12-07T08:06:13;6.85;;;5.13;;
1533;SDS011;760;48.822;9.304;2022-12-07T08:08:39;7.10;;;5.80;;
1533;SDS011;760;48.822;9.304;2022-12-07T08:11:05;4.37;;;3.60;;
1533;SDS011;760;48.822;9.304;2022-12-07T08:13:31;5.82;;;3.60;;
1533;SDS011;760;48.822;9.304;2022-12-07T08:15:57;7.10;;;3.87;;
1533;SDS011;760;48.822;9.304;2022-12-07T08:18:23;7.93;;;3.03;;
1533;SDS011;760;48.822;9.304;2022-12-07T08:20:48;3.87;;;3.27;;
1533;SDS011;760;48.822;9.304;2022-12-07T08:23:14;3.60;;;3.10;;
1533;SDS011;760;48.822;9.304;2022-12-07T08:25:40;3.60;;;3.30;;
1533;SDS011;760;48.822;9.304;2022-12-07T08:28:05;4.90;;;3.80;;
1533;SDS011;760;48.822;9.304;2022-12-07T08:30:32;2.80;;;2.60;;
1533;SDS011;760;48.822;9.304;2022-12-07T08:32:58;6.18;;;4.38;;
1533;SDS011;760;48.822;9.304;2022-12-07T08:35:24;5.53;;;4.20;;
1533;SDS011;760;48.822;9.304;2022-12-07T08:37:50;4.93;;;3.80;;
1533;SDS011;760;48.822;9.304;2022-12-07T08:40:15;2.87;;;2.50;;
1533;SDS011;760;48.822;9.304;2022-12-07T08:42:44;2.55;;;2.33;;
1533;SDS011;760;48.822;9.304;2022-12-07T08:45:14;2.85;;;2.50;;
1533;SDS011;760;48.822;9.304;2022-12-07T08:47:41;6.68;;;3.60;;
1533;SDS011;760;48.822;9.304;2022-12-07T08:50:10;4.40;;;3.08;;
1533;SDS011;760;48.822;9.304;2022-12-07T08:52:37;6.30;;;4.63;;
1533;SDS011;760;48.822;9.304;2022-12-07T08:55:04;4.63;;;2.75;;
1533;SDS011;760;48.822;9.304;2022-12-07T08:57:31;3.90;;;3.60;;
1533;SDS011;760;48.822;9.304;2022-12-07T08:59:59;3.35;;;2.75;;
1533;SDS011;760;48.822;9.304;2022-12-07T09:02:24;3.40;;;2.90;;
1533;SDS011;760;48.822;9.304;2022-12-07T09:04:50;4.30;;;3.20;;
1533;SDS011;760;48.822;9.304;2022-12-07T09:07:16;3.70;;;2.53;;
1533;SDS011;760;48.822;9.304;2022-12-07T09:09:41;3.43;;;3.10;;
1533;SDS011;760;48.822;9.304;2022-12-07T09:12:07;7.53;;;4.80;;
1533;SDS011;760;48.822;9.304;2022-12-07T09:14:33;4.57;;;4.05;;
1533;SDS011;760;48.822;9.304;2022-12-07T09:17:06;4.83;;;3.13;;
1533;SDS011;760;48.822;9.304;2022-12-07T09:19:36;4.25;;;3.50;;
1533;SDS011;760;48.822;9.304;2022-12-07T09:22:02;5.00;;;3.70;;
1533;SDS011;760;48.822;9.304;2022-12-07T09:24:29;4.15;;;3.47;;
1533;SDS011;760;48.822;9.304;2022-12-07T09:26:58;3.47;;;3.08;;
1533;SDS011;760;48.822;9.304;2022-12-07T09:29:24;3.30;;;3.00;;
1533;SDS011;760;48.822;9.304;2022-12-07T09:31:50;3.70;;;3.40;;
1533;SDS011;760;48.822;9.304;2022-12-07T09:34:16;8.48;;;3.28;;
1533;SDS011;760;48.822;9.304;2022-12-07T09:36:42;5.80;;;3.20;;
1533;SDS011;760;48.822;9.304;2022-12-07T09:39:08;8.33;;;5.40;;
1533;SDS011;760;48.822;9.304;2022-12-07T09:41:37;3.22;;;2.92;;
1533;SDS011;760;48.822;9.304;2022-12-07T09:44:11;3.25;;;2.95;;
1533;SDS011;760;48.822;9.304;2022-12-07T09:46:39;3.53;;;3.20;;
1533;SDS011;760;48.822;9.304;2022-12-07T09:49:15;3.55;;;3.25;;
1533;SDS011;760;48.822;9.304;2022-12-07T09:51:44;3.47;;;2.95;;
1533;SDS011;760;48.822;9.304;2022-12-07T09:54:14;3.33;;;3.03;;
1533;SDS011;760;48.822;9.304;2022-12-07T09:56:41;3.03;;;2.83;;
1533;SDS011;760;48.822;9.304;2022-12-07T09:59:16;5.00;;;3.30;;
1533;SDS011;760;48.822;9.304;2022-12-07T10:01:43;6.03;;;2.90;;
1533;SDS011;760;48.822;9.304;2022-12-07T10:04:13;2.72;;;2.53;;
1533;SDS011;760;48.822;9.304;2022-12-07T10:06:59;2.85;;;2.33;;
1533;SDS011;760;48.822;9.304;2022-12-07T10:09:25;2.30;;;2.10;;
1533;SDS011;760;48.822;9.304;2022-12-07T10:12:10;3.97;;;3.67;;
1533;SDS011;760;48.822;9.304;2022-12-07T10:14:40;2.65;;;2.45;;
1533;SDS011;760;48.822;9.304;2022-12-07T10:20:07;2.38;;;2.00;;
1533;SDS011;760;48.822;9.304;2022-12-07T10:22:37;1.90;;;1.80;;
1533;SDS011;760;48.822;9.304;2022-12-07T10:25:09;2.10;;;1.97;;
1533;SDS011;760;48.822;9.304;2022-12-07T10:27:44;3.08;;;2.28;;
1533;SDS011;760;48.822;9.304;2022-12-07T10:30:26;2.53;;;2.33;;
1533;SDS011;760;48.822;9.304;2022-12-07T10:32:51;1.93;;;1.80;;
1533;SDS011;760;48.822;9.304;2022-12-07T10:35:19;2.60;;;2.40;;
1533;SDS011;760;48.822;9.304;2022-12-07T10:37:55;2.67;;;2.25;;
1533;SDS011;760;48.822;9.304;2022-12-07T10:43:00;2.05;;;1.88;;
1533;SDS011;760;48.822;9.304;2022-12-07T10:45:31;2.78;;;1.75;;
1533;SDS011;760;48.822;9.304;2022-12-07T10:56:23;2.63;;;2.40;;
1533;SDS011;760;48.822;9.304;2022-12-07T11:07:49;2.60;;;2.40;;
1533;SDS011;760;48.822;9.304;2022-12-07T11:10:18;3.28;;;2.85;;
1533;SDS011;760;48.822;9.304;2022-12-07T11:18:58;2.55;;;1.95;;
1533;SDS011;760;48.822;9.304;2022-12-07T11:21:48;5.47;;;2.72;;
1533;SDS011;760;48.822;9.304;2022-12-07T11:24:26;2.58;;;2.35;;
1533;SDS011;760;48.822;9.304;2022-12-07T11:33:21;1.75;;;1.40;;
1533;SDS011;760;48.822;9.304;2022-12-07T11:35:38;1.52;;;1.40;;
1533;SDS011;760;48.822;9.304;2022-12-07T11:40:40;2.58;;;2.13;;
1533;SDS011;760;48.822;9.304;2022-12-07T11:43:18;1.90;;;1.75;;
1533;SDS011;760;48.822;9.304;2022-12-07T11:45:58;2.58;;;2.38;;
1533;SDS011;760;48.822;9.304;2022-12-07T11:48:33;2.22;;;2.00;;
1533;SDS011;760;48.822;9.304;2022-12-07T11:51:22;3.28;;;3.08;;
1533;SDS011;760;48.822;9.304;2022-12-07T11:53:57;3.85;;;3.10;;
1533;SDS011;760;48.822;9.304;2022-12-07T11:56:28;4.20;;;2.95;;
1533;SDS011;760;48.822;9.304;2022-12-07T11:59:02;3.65;;;2.70;;
1533;SDS011;760;48.822;9.304;2022-12-07T12:06:35;4.20;;;2.97;;
1533;SDS011;760;48.822;9.304;2022-12-07T12:14:14;5.32;;;3.65;;
1533;SDS011;760;48.822;9.304;2022-12-07T12:23:09;6.32;;;4.18;;
1533;SDS011;760;48.822;9.304;2022-12-07T12:25:42;5.47;;;3.17;;
1533;SDS011;760;48.822;9.304;2022-12-07T12:33:52;4.40;;;3.20;;
1533;SDS011;760;48.822;9.304;2022-12-07T12:42:05;5.10;;;4.50;;
1533;SDS011;760;48.822;9.304;2022-12-07T12:49:40;4.55;;;3.60;;
1533;SDS011;760;48.822;9.304;2022-12-07T12:54:41;7.07;;;4.20;;
1533;SDS011;760;48.822;9.304;2022-12-07T12:57:34;3.25;;;2.65;;
1533;SDS011;760;48.822;9.304;2022-12-07T13:00:14;4.78;;;3.75;;
1533;SDS011;760;48.822;9.304;2022-12-07T13:05:21;3.40;;;3.10;;
1533;SDS011;760;48.822;9.304;2022-12-07T13:07:54;4.35;;;3.45;;
1533;SDS011;760;48.822;9.304;2022-12-07T13:18:22;4.50;;;3.70;;
1533;SDS011;760;48.822;9.304;2022-12-07T13:20:57;3.08;;;2.80;;
1533;SDS011;760;48.822;9.304;2022-12-07T13:25:59;6.43;;;3.60;;
1533;SDS011;760;48.822;9.304;2022-12-07T13:28:43;3.92;;;3.50;;
1533;SDS011;760;48.822;9.304;2022-12-07T13:33:51;3.67;;;2.85;;
1533;SDS011;760;48.822;9.304;2022-12-07T13:38:54;6.35;;;3.65;;
1533;SDS011;760;48.822;9.304;2022-12-07T13:41:25;4.60;;;3.03;;
1533;SDS011;760;48.822;9.304;2022-12-07T13:44:00;5.03;;;3.60;;
1533;SDS011;760;48.822;9.304;2022-12-07T13:46:57;3.88;;;3.40;;
1533;SDS011;760;48.822;9.304;2022-12-07T13:49:27;4.55;;;3.85;;
1533;SDS011;760;48.822;9.304;2022-12-07T13:51:55;11.55;;;3.85;;
1533;SDS011;760;48.822;9.304;2022-12-07T13:55:00;3.45;;;2.63;;
1533;SDS011;760;48.822;9.304;2022-12-07T13:57:30;7.60;;;4.47;;
1533;SDS011;760;48.822;9.304;2022-12-07T13:59:59;5.22;;;3.88;;
1533;SDS011;760;48.822;9.304;2022-12-07T14:02:33;4.22;;;3.67;;
1533;SDS011;760;48.822;9.304;2022-12-07T14:07:48;6.22;;;3.92;;
1533;SDS011;760;48.822;9.304;2022-12-07T14:12:50;6.28;;;4.20;;
1533;SDS011;760;48.822;9.304;2022-12-07T14:15:19;4.97;;;4.53;;
1533;SDS011;760;48.822;9.304;2022-12-07T14:17:50;6.63;;;3.88;;
1533;SDS011;760;48.822;9.304;2022-12-07T14:20:30;5.07;;;3.80;;
1533;SDS011;760;48.822;9.304;2022-12-07T14:23:01;4.70;;;3.70;;
1533;SDS011;760;48.822;9.304;2022-12-07T14:25:43;4.38;;;4.03;;
1533;SDS011;760;48.822;9.304;2022-12-07T14:30:56;5.75;;;4.30;;
1533;SDS011;760;48.822;9.304;2022-12-07T14:33:22;5.38;;;4.53;;
1533;SDS011;760;48.822;9.304;2022-12-07T14:35:49;4.45;;;3.50;;
1533;SDS011;760;48.822;9.304;2022-12-07T14:38:15;4.77;;;4.10;;
1533;SDS011;760;48.822;9.304;2022-12-07T14:40:43;5.68;;;3.90;;
1533;SDS011;760;48.822;9.304;2022-12-07T14:43:10;8.02;;;4.50;;
1533;SDS011;760;48.822;9.304;2022-12-07T14:45:39;7.53;;;4.13;;
1533;SDS011;760;48.822;9.304;2022-12-07T14:48:05;5.38;;;4.13;;
1533;SDS011;760;48.822;9.304;2022-12-07T14:50:34;6.00;;;4.15;;
1533;SDS011;760;48.822;9.304;2022-12-07T14:53:04;5.13;;;4.32;;
1533;SDS011;760;48.822;9.304;2022-12-07T14:55:36;5.75;;;3.90;;
1533;SDS011;760;48.822;9.304;2022-12-07T14:58:02;8.00;;;4.50;;
1533;SDS011;760;48.822;9.304;2022-12-07T15:00:28;10.73;;;5.10;;
1533;SDS011;760;48.822;9.304;2022-12-07T15:02:54;5.43;;;4.88;;
1533;SDS011;760;48.822;9.304;2022-12-07T15:05:20;6.50;;;4.70;;
1533;SDS011;760;48.822;9.304;2022-12-07T15:07:46;8.40;;;5.68;;
1533;SDS011;760;48.822;9.304;2022-12-07T15:10:15;9.45;;;5.50;;
1533;SDS011;760;48.822;9.304;2022-12-07T15:12:48;4.55;;;3.83;;
1533;SDS011;760;48.822;9.304;2022-12-07T15:15:14;7.30;;;5.30;;
1533;SDS011;760;48.822;9.304;2022-12-07T15:17:40;7.83;;;4.70;;
1533;SDS011;760;48.822;9.304;2022-12-07T15:20:08;6.88;;;4.65;;
1533;SDS011;760;48.822;9.304;2022-12-07T15:22:37;6.72;;;5.05;;
1533;SDS011;760;48.822;9.304;2022-12-07T15:25:03;7.80;;;5.77;;
1533;SDS011;760;48.822;9.304;2022-12-07T15:27:30;7.43;;;4.78;;
1533;SDS011;760;48.822;9.304;2022-12-07T15:29:56;12.40;;;7.00;;
1533;SDS011;760;48.822;9.304;2022-12-07T15:32:22;8.20;;;5.70;;
1533;SDS011;760;48.822;9.304;2022-12-07T15:34:48;13.47;;;6.10;;
1533;SDS011;760;48.822;9.304;2022-12-07T15:37:15;4.80;;;4.40;;
1533;SDS011;760;48.822;9.304;2022-12-07T15:39:40;7.40;;;5.40;;
1533;SDS011;760;48.822;9.304;2022-12-07T15:42:06;8.17;;;4.47;;
1533;SDS011;760;48.822;9.304;2022-12-07T15:44:32;6.90;;;3.90;;
1533;SDS011;760;48.822;9.304;2022-12-07T15:47:16;4.97;;;4.47;;
1533;SDS011;760;48.822;9.304;2022-12-07T15:49:42;5.60;;;4.53;;
1533;SDS011;760;48.822;9.304;2022-12-07T15:52:07;6.50;;;4.60;;
1533;SDS011;760;48.822;9.304;2022-12-07T15:54:33;6.53;;;4.60;;
1533;SDS011;760;48.822;9.304;2022-12-07T15:56:59;6.10;;;4.30;;
1533;SDS011;760;48.822;9.304;2022-12-07T15:59:26;5.78;;;5.03;;
1533;SDS011;760;48.822;9.304;2022-12-07T16:01:52;15.15;;;5.97;;
1533;SDS011;760;48.822;9.304;2022-12-07T16:04:18;7.17;;;4.97;;
1533;SDS011;760;48.822;9.304;2022-12-07T16:06:44;7.63;;;5.27;;
1533;SDS011;760;48.822;9.304;2022-12-07T16:09:09;8.73;;;4.90;;
1533;SDS011;760;48.822;9.304;2022-12-07T16:11:35;5.33;;;4.80;;
1533;SDS011;760;48.822;9.304;2022-12-07T16:14:00;5.63;;;5.10;;
1533;SDS011;760;48.822;9.304;2022-12-07T16:16:26;5.47;;;4.50;;
1533;SDS011;760;48.822;9.304;2022-12-07T16:18:52;4.90;;;4.30;;
1533;SDS011;760;48.822;9.304;2022-12-07T16:21:19;5.40;;;3.88;;
1533;SDS011;760;48.822;9.304;2022-12-07T16:23:45;5.32;;;4.82;;
1533;SDS011;760;48.822;9.304;2022-12-07T16:26:12;5.90;;;4.90;;
1533;SDS011;760;48.822;9.304;2022-12-07T16:28:45;8.82;;;4.68;;
1533;SDS011;760;48.822;9.304;2022-12-07T16:31:14;5.90;;;4.45;;
1533;SDS011;760;48.822;9.304;2022-12-07T16:33:42;5.38;;;4.45;;
1533;SDS011;760;48.822;9.304;2022-12-07T16:36:09;5.75;;;3.92;;
1533;SDS011;760;48.822;9.304;2022-12-07T16:38:35;5.43;;;4.95;;
1533;SDS011;760;48.822;9.304;2022-12-07T16:41:01;7.50;;;4.60;;
1533;SDS011;760;48.822;9.304;2022-12-07T16:43:27;9.00;;;5.33;;
1533;SDS011;760;48.822;9.304;2022-12-07T16:45:53;8.50;;;4.93;;
1533;SDS011;760;48.822;9.304;2022-12-07T16:48:18;8.70;;;5.63;;
1533;SDS011;760;48.822;9.304;2022-12-07T16:50:44;5.30;;;4.23;;
1533;SDS011;760;48.822;9.304;2022-12-07T16:53:11;6.93;;;4.70;;
1533;SDS011;760;48.822;9.304;2022-12-07T16:55:38;6.50;;;4.65;;
1533;SDS011;760;48.822;9.304;2022-12-07T16:58:06;7.00;;;4.50;;
1533;SDS011;760;48.822;9.304;2022-12-07T17:00:32;9.07;;;4.45;;
1533;SDS011;760;48.822;9.304;2022-12-07T17:02:57;9.17;;;5.90;;
1533;SDS011;760;48.822;9.304;2022-12-07T17:05:23;7.27;;;4.13;;
1533;SDS011;760;48.822;9.304;2022-12-07T17:07:50;8.48;;;5.18;;
1533;SDS011;760;48.822;9.304;2022-12-07T17:10:15;7.03;;;4.85;;
1533;SDS011;760;48.822;9.304;2022-12-07T17:12:41;5.30;;;4.83;;
1533;SDS011;760;48.822;9.304;2022-12-07T17:15:07;5.90;;;5.37;;
1533;SDS011;760;48.822;9.304;2022-12-07T17:17:45;10.05;;;4.85;;
1533;SDS011;760;48.822;9.304;2022-12-07T17:20:16;8.50;;;4.55;;
1533;SDS011;760;48.822;9.304;2022-12-07T17:22:42;4.00;;;3.70;;
1533;SDS011;760;48.822;9.304;2022-12-07T17:25:08;4.77;;;4.23;;
1533;SDS011;760;48.822;9.304;2022-12-07T17:27:34;6.10;;;4.22;;
1533;SDS011;760;48.822;9.304;2022-12-07T17:30:00;8.60;;;6.60;;
1533;SDS011;760;48.822;9.304;2022-12-07T17:32:26;14.23;;;7.60;;
1533;SDS011;760;48.822;9.304;2022-12-07T17:34:51;6.90;;;4.90;;
1533;SDS011;760;48.822;9.304;2022-12-07T17:37:17;10.60;;;6.00;;
1533;SDS011;760;48.822;9.304;2022-12-07T17:39:43;5.67;;;4.73;;
1533;SDS011;760;48.822;9.304;2022-12-07T17:42:08;7.80;;;5.10;;
1533;SDS011;760;48.822;9.304;2022-12-07T17:44:53;4.75;;;3.70;;
1533;SDS011;760;48.822;9.304;2022-12-07T17:47:18;12.13;;;7.07;;
1533;SDS011;760;48.822;9.304;2022-12-07T17:49:45;10.20;;;7.30;;
1533;SDS011;760;48.822;9.304;2022-12-07T17:52:12;7.30;;;5.20;;
1533;SDS011;760;48.822;9.304;2022-12-07T17:54:56;9.57;;;5.57;;
1533;SDS011;760;48.822;9.304;2022-12-07T17:57:22;11.23;;;6.10;;
1533;SDS011;760;48.822;9.304;2022-12-07T17:59:47;8.57;;;4.30;;
1533;SDS011;760;48.822;9.304;2022-12-07T18:02:13;10.25;;;5.03;;
1533;SDS011;760;48.822;9.304;2022-12-07T18:04:39;8.10;;;5.57;;
1533;SDS011;760;48.822;9.304;2022-12-07T18:07:07;5.03;;;4.53;;
1533;SDS011;760;48.822;9.304;2022-12-07T18:09:33;6.95;;;5.20;;
1533;SDS011;760;48.822;9.304;2022-12-07T18:11:59;7.50;;;4.27;;
1533;SDS011;760;48.822;9.304;2022-12-07T18:14:24;5.73;;;5.13;;
1533;SDS011;760;48.822;9.304;2022-12-07T18:16:50;4.90;;;4.40;;
1533;SDS011;760;48.822;9.304;2022-12-07T18:19:16;4.80;;;4.27;;
1533;SDS011;760;48.822;9.304;2022-12-07T18:21:41;5.47;;;4.87;;
1533;SDS011;760;48.822;9.304;2022-12-07T18:24:09;6.97;;;5.50;;
1533;SDS011;760;48.822;9.304;2022-12-07T18:26:36;4.95;;;4.15;;
1533;SDS011;760;48.822;9.304;2022-12-07T18:29:02;6.63;;;4.43;;
1533;SDS011;760;48.822;9.304;2022-12-07T18:31:30;6.78;;;4.70;;
1533;SDS011;760;48.822;9.304;2022-12-07T18:33:59;7.22;;;4.70;;
1533;SDS011;760;48.822;9.304;2022-12-07T18:36:28;5.20;;;4.35;;
1533;SDS011;760;48.822;9.304;2022-12-07T18:38:54;5.00;;;4.60;;
1533;SDS011;760;48.822;9.304;2022-12-07T18:41:20;6.57;;;4.00;;
1533;SDS011;760;48.822;9.304;2022-12-07T18:43:45;6.93;;;5.97;;
1533;SDS011;760;48.822;9.304;2022-12-07T18:46:12;5.00;;;3.97;;
1533;SDS011;760;48.822;9.304;2022-12-07T18:48:40;5.95;;;5.45;;
1533;SDS011;760;48.822;9.304;2022-12-07T18:51:06;6.73;;;3.63;;
1533;SDS011;760;48.822;9.304;2022-12-07T18:53:34;8.57;;;4.85;;
1533;SDS011;760;48.822;9.304;2022-12-07T18:56:11;5.90;;;4.83;;
1533;SDS011;760;48.822;9.304;2022-12-07T18:58:38;7.70;;;5.80;;
1533;SDS011;760;48.822;9.304;2022-12-07T19:01:24;7.22;;;6.40;;
1533;SDS011;760;48.822;9.304;2022-12-07T19:03:50;4.88;;;4.45;;
1533;SDS011;760;48.822;9.304;2022-12-07T19:06:16;9.00;;;5.67;;
1533;SDS011;760;48.822;9.304;2022-12-07T19:08:42;6.13;;;5.13;;
1533;SDS011;760;48.822;9.304;2022-12-07T19:11:18;9.35;;;4.50;;
1533;SDS011;760;48.822;9.304;2022-12-07T19:14:07;5.90;;;3.75;;
1533;SDS011;760;48.822;9.304;2022-12-07T19:16:32;4.90;;;4.40;;
1533;SDS011;760;48.822;9.304;2022-12-07T19:18:58;6.93;;;5.25;;
1533;SDS011;760;48.822;9.304;2022-12-07T19:21:24;7.13;;;4.80;;
1533;SDS011;760;48.822;9.304;2022-12-07T19:23:51;9.10;;;5.05;;
1533;SDS011;760;48.822;9.304;2022-12-07T19:26:17;5.82;;;4.30;;
1533;SDS011;760;48.822;9.304;2022-12-07T19:28:43;8.17;;;7.10;;
1533;SDS011;760;48.822;9.304;2022-12-07T19:31:09;7.67;;;6.00;;
1533;SDS011;760;48.822;9.304;2022-12-07T19:33:38;5.78;;;5.10;;
1533;SDS011;760;48.822;9.304;2022-12-07T19:36:04;8.30;;;5.93;;
1533;SDS011;760;48.822;9.304;2022-12-07T19:38:30;8.43;;;5.80;;
1533;SDS011;760;48.822;9.304;2022-12-07T19:41:04;7.90;;;5.85;;
1533;SDS011;760;48.822;9.304;2022-12-07T19:43:57;6.80;;;5.70;;
1533;SDS011;760;48.822;9.304;2022-12-07T19:46:23;5.80;;;4.57;;
1533;SDS011;760;48.822;9.304;2022-12-07T19:48:49;7.00;;;5.30;;
1533;SDS011;760;48.822;9.304;2022-12-07T19:51:15;7.43;;;5.20;;
1533;SDS011;760;48.822;9.304;2022-12-07T19:53:40;6.63;;;5.50;;
1533;SDS011;760;48.822;9.304;2022-12-07T19:56:06;7.23;;;5.40;;
1533;SDS011;760;48.822;9.304;2022-12-07T19:58:32;5.60;;;4.90;;
1533;SDS011;760;48.822;9.304;2022-12-07T20:01:04;12.70;;;6.70;;
1533;SDS011;760;48.822;9.304;2022-12-07T20:03:30;6.35;;;5.20;;
1533;SDS011;760;48.822;9.304;2022-12-07T20:05:56;11.30;;;6.68;;
1533;SDS011;760;48.822;9.304;2022-12-07T20:08:22;5.68;;;5.18;;
1533;SDS011;760;48.822;9.304;2022-12-07T20:10:48;6.30;;;4.72;;
1533;SDS011;760;48.822;9.304;2022-12-07T20:13:17;4.78;;;4.25;;
1533;SDS011;760;48.822;9.304;2022-12-07T20:15:53;6.82;;;4.93;;
1533;SDS011;760;48.822;9.304;2022-12-07T20:18:19;5.20;;;4.25;;
1533;SDS011;760;48.822;9.304;2022-12-07T20:20:57;7.50;;;5.13;;
1533;SDS011;760;48.822;9.304;2022-12-07T20:23:23;6.65;;;5.97;;
1533;SDS011;760;48.822;9.304;2022-12-07T20:25:51;7.40;;;5.10;;
1533;SDS011;760;48.822;9.304;2022-12-07T20:28:17;6.80;;;5.63;;
1533;SDS011;760;48.822;9.304;2022-12-07T20:30:46;6.83;;;5.50;;
1533;SDS011;760;48.822;9.304;2022-12-07T20:33:16;10.13;;;5.97;;
1533;SDS011;760;48.822;9.304;2022-12-07T20:35:43;7.28;;;5.55;;
1533;SDS011;760;48.822;9.304;2022-12-07T20:38:09;6.87;;;5.37;;
1533;SDS011;760;48.822;9.304;2022-12-07T20:40:36;6.53;;;5.25;;
1533;SDS011;760;48.822;9.304;2022-12-07T20:43:02;6.82;;;5.30;;
1533;SDS011;760;48.822;9.304;2022-12-07T20:45:27;6.27;;;5.63;;
1533;SDS011;760;48.822;9.304;2022-12-07T20:47:53;6.87;;;5.23;;
1533;SDS011;760;48.822;9.304;2022-12-07T20:50:19;5.60;;;4.18;;
1533;SDS011;760;48.822;9.304;2022-12-07T20:52:45;6.80;;;4.80;;
1533;SDS011;760;48.822;9.304;2022-12-07T20:55:10;6.73;;;6.13;;
1533;SDS011;760;48.822;9.304;2022-12-07T20:57:37;9.00;;;5.65;;
1533;SDS011;760;48.822;9.304;2022-12-07T21:00:05;10.03;;;5.73;;
1533;SDS011;760;48.822;9.304;2022-12-07T21:02:32;7.00;;;4.80;;
1533;SDS011;760;48.822;9.304;2022-12-07T21:04:58;6.80;;;6.10;;
1533;SDS011;760;48.822;9.304;2022-12-07T21:07:24;7.77;;;5.93;;
1533;SDS011;760;48.822;9.304;2022-12-07T21:09:50;8.27;;;6.83;;
1533;SDS011;760;48.822;9.304;2022-12-07T21:12:16;12.15;;;7.88;;
1533;SDS011;760;48.822;9.304;2022-12-07T21:14:43;7.88;;;4.15;;
1533;SDS011;760;48.822;9.304;2022-12-07T21:17:09;4.60;;;4.20;;
1533;SDS011;760;48.822;9.304;2022-12-07T21:19:35;7.55;;;4.63;;
1533;SDS011;760;48.822;9.304;2022-12-07T21:22:01;5.13;;;4.65;;
1533;SDS011;760;48.822;9.304;2022-12-07T21:24:27;7.25;;;5.95;;
1533;SDS011;760;48.822;9.304;2022-12-07T21:26:53;5.63;;;5.13;;
1533;SDS011;760;48.822;9.304;2022-12-07T21:29:18;6.10;;;5.50;;
1533;SDS011;760;48.822;9.304;2022-12-07T21:31:44;7.20;;;5.27;;
1533;SDS011;760;48.822;9.304;2022-12-07T21:34:09;7.60;;;5.43;;
1533;SDS011;760;48.822;9.304;2022-12-07T21:36:35;7.90;;;6.10;;
1533;SDS011;760;48.822;9.304;2022-12-07T21:39:01;6.60;;;5.23;;
1533;SDS011;760;48.822;9.304;2022-12-07T21:41:28;6.93;;;6.27;;
1533;SDS011;760;48.822;9.304;2022-12-07T21:43:55;7.13;;;6.43;;
1533;SDS011;760;48.822;9.304;2022-12-07T21:46:22;8.60;;;6.43;;
1533;SDS011;760;48.822;9.304;2022-12-07T21:48:49;10.70;;;6.05;;
1533;SDS011;760;48.822;9.304;2022-12-07T21:51:16;8.23;;;5.53;;
1533;SDS011;760;48.822;9.304;2022-12-07T21:53:43;6.53;;;5.72;;
1533;SDS011;760;48.822;9.304;2022-12-07T21:56:15;8.00;;;6.40;;
1533;SDS011;760;48.822;9.304;2022-12-07T21:58:51;7.00;;;5.15;;
1533;SDS011;760;48.822;9.304;2022-12-07T22:01:22;9.48;;;5.20;;
1533;SDS011;760;48.822;9.304;2022-12-07T22:03:50;7.07;;;5.68;;
1533;SDS011;760;48.822;9.304;2022-12-07T22:06:18;7.65;;;4.82;;
1533;SDS011;760;48.822;9.304;2022-12-07T22:08:46;8.02;;;5.70;;
1533;SDS011;760;48.822;9.304;2022-12-07T22:11:12;5.60;;;4.82;;
1533;SDS011;760;48.822;9.304;2022-12-07T22:13:39;10.45;;;4.43;;
1533;SDS011;760;48.822;9.304;2022-12-07T22:16:24;6.50;;;4.82;;
1533;SDS011;760;48.822;9.304;2022-12-07T22:18:51;7.13;;;5.18;;
1533;SDS011;760;48.822;9.304;2022-12-07T22:21:17;7.30;;;4.60;;